Time;durP1;ratioP1;P1;durP2;ratioP2;P2;SDS_P1;SDS_P2;PMS_P1;PMS_P2;Temp;Humidity;BMP_temperature;BMP_pressure;BME280_temperature;BME280_humidity;BME280_pressure;Samples;Min_cycle;Max_cycle;Signal;HPM_P1;HPM_P2
2022/09/15 00:02:19;;;;;;;4.60;2.50;;;;;;;;;;5014824;28;20448;-76
2022/09/15 00:04:46;;;;;;;4.83;3.17;;;;;;;;;;5013756;28;20443;-76
2022/09/15 00:07:14;;;;;;;3.20;2.90;;;;;;;;;;5013766;28;20455;-76
2022/09/15 00:09:41;;;;;;;2.80;2.60;;;;;;;;;;5014294;28;20451;-75
2022/09/15 00:12:09;;;;;;;4.23;2.90;;;;;;;;;;5014345;28;20451;-76
2022/09/15 00:14:35;;;;;;;2.70;2.43;;;;;;;;;;5013447;28;20471;-78
2022/09/15 00:17:02;;;;;;;3.00;2.80;;;;;;;;;;5014044;28;20447;-76
2022/09/15 00:19:30;;;;;;;3.27;2.80;;;;;;;;;;5014067;28;20501;-77
2022/09/15 00:21:57;;;;;;;3.00;2.67;;;;;;;;;;5013890;28;20443;-78
2022/09/15 00:24:25;;;;;;;5.83;2.80;;;;;;;;;;5013925;28;20470;-76
2022/09/15 00:26:52;;;;;;;4.63;2.67;;;;;;;;;;5014054;28;20448;-79
2022/09/15 00:29:19;;;;;;;2.77;2.50;;;;;;;;;;5014061;28;20478;-76
2022/09/15 00:31:46;;;;;;;3.23;2.70;;;;;;;;;;5014151;28;20450;-76
2022/09/15 00:34:15;;;;;;;3.20;3.00;;;;;;;;;;5014063;28;20834;-76
2022/09/15 00:36:42;;;;;;;2.50;2.30;;;;;;;;;;5013832;28;20443;-77
2022/09/15 00:39:09;;;;;;;3.03;2.80;;;;;;;;;;5013406;28;21045;-76
2022/09/15 00:41:38;;;;;;;2.60;2.50;;;;;;;;;;5014114;28;20501;-76
2022/09/15 00:44:07;;;;;;;2.90;2.70;;;;;;;;;;5013330;28;20528;-76
2022/09/15 00:46:35;;;;;;;3.70;3.20;;;;;;;;;;5013300;28;21109;-77
2022/09/15 00:49:04;;;;;;;3.10;2.80;;;;;;;;;;5013914;28;20455;-76
2022/09/15 00:51:34;;;;;;;3.80;3.43;;;;;;;;;;5013478;28;20459;-77
2022/09/15 00:54:02;;;;;;;3.00;2.80;;;;;;;;;;5013100;28;21015;-78
2022/09/15 00:56:29;;;;;;;2.40;2.30;;;;;;;;;;5013221;28;20506;-77
2022/09/15 00:59:00;;;;;;;3.27;2.70;;;;;;;;;;5013006;28;20501;-76
2022/09/15 01:01:28;;;;;;;3.17;2.60;;;;;;;;;;5013888;28;20451;-76
2022/09/15 01:03:55;;;;;;;3.33;2.90;;;;;;;;;;5013673;28;20450;-76
2022/09/15 01:06:25;;;;;;;5.13;2.90;;;;;;;;;;5016423;28;20454;-77
2022/09/15 01:08:54;;;;;;;2.83;2.63;;;;;;;;;;5013121;28;20491;-76
2022/09/15 01:11:21;;;;;;;4.87;2.60;;;;;;;;;;5013219;28;20451;-76
2022/09/15 01:13:48;;;;;;;3.83;2.83;;;;;;;;;;5015542;28;20486;-77
2022/09/15 01:16:20;;;;;;;2.50;2.40;;;;;;;;;;5013256;28;20535;-76
2022/09/15 01:18:53;;;;;;;2.40;2.30;;;;;;;;;;5013558;28;20474;-77
2022/09/15 01:21:24;;;;;;;3.13;2.87;;;;;;;;;;5013126;28;20524;-76
2022/09/15 01:24:06;;;;;;;2.87;2.60;;;;;;;;;;5013292;28;20501;-77
2022/09/15 01:26:46;;;;;;;3.57;2.50;;;;;;;;;;5013209;28;20447;-77
2022/09/15 01:29:34;;;;;;;3.10;2.43;;;;;;;;;;5013168;28;20558;-76
2022/09/15 01:34:55;;;;;;;2.20;2.10;;;;;;;;;;5012256;28;20498;-76
2022/09/15 01:37:26;;;;;;;2.93;2.00;;;;;;;;;;5012279;28;20530;-76
2022/09/15 01:39:54;;;;;;;2.30;2.03;;;;;;;;;;5012283;28;20436;-76
2022/09/15 01:42:23;;;;;;;3.13;2.40;;;;;;;;;;5012590;28;20450;-77
2022/09/15 01:44:54;;;;;;;2.93;2.20;;;;;;;;;;5012317;28;20450;-76
2022/09/15 01:47:23;;;;;;;5.23;2.23;;;;;;;;;;5012347;28;20490;-76
2022/09/15 01:49:51;;;;;;;2.73;2.17;;;;;;;;;;5012919;28;20470;-78
2022/09/15 01:52:19;;;;;;;2.20;2.10;;;;;;;;;;5013017;28;20455;-77
2022/09/15 01:54:48;;;;;;;4.00;2.00;;;;;;;;;;5012003;28;20519;-76
2022/09/15 01:57:16;;;;;;;2.57;2.37;;;;;;;;;;5011417;28;20990;-76
2022/09/15 01:59:43;;;;;;;2.47;2.00;;;;;;;;;;5011973;28;20546;-76
2022/09/15 02:02:12;;;;;;;3.27;2.03;;;;;;;;;;5013849;28;20527;-78
2022/09/15 02:04:44;;;;;;;2.63;2.30;;;;;;;;;;5014857;28;20853;-77
2022/09/15 02:07:13;;;;;;;2.50;2.33;;;;;;;;;;5014876;28;20455;-76
2022/09/15 02:09:43;;;;;;;2.30;2.20;;;;;;;;;;5014003;28;20459;-77
2022/09/15 02:12:14;;;;;;;2.20;2.10;;;;;;;;;;5014434;28;20455;-77
2022/09/15 02:14:47;;;;;;;3.73;2.00;;;;;;;;;;5013947;28;20490;-76
2022/09/15 02:17:16;;;;;;;2.60;2.40;;;;;;;;;;5012009;28;20502;-76
2022/09/15 02:19:46;;;;;;;2.67;2.50;;;;;;;;;;5012152;28;20443;-77
2022/09/15 02:22:16;;;;;;;2.30;2.10;;;;;;;;;;5012091;28;20455;-76
2022/09/15 02:24:45;;;;;;;2.20;2.10;;;;;;;;;;5011842;28;20451;-76
2022/09/15 02:27:14;;;;;;;3.00;2.30;;;;;;;;;;5011459;28;20443;-78
2022/09/15 02:29:42;;;;;;;7.40;2.83;;;;;;;;;;5011803;28;20534;-76
2022/09/15 02:32:10;;;;;;;2.13;1.83;;;;;;;;;;5012146;28;20505;-76
2022/09/15 02:34:39;;;;;;;4.60;2.40;;;;;;;;;;5011049;28;20478;-75
2022/09/15 02:37:08;;;;;;;1.70;1.60;;;;;;;;;;5011650;28;20443;-76
2022/09/15 02:39:37;;;;;;;2.23;2.07;;;;;;;;;;5012091;28;20919;-76
2022/09/15 02:42:04;;;;;;;2.10;1.90;;;;;;;;;;5011751;28;20447;-76
2022/09/15 02:44:31;;;;;;;1.93;1.83;;;;;;;;;;5012145;28;20448;-76
2022/09/15 02:46:59;;;;;;;3.57;2.13;;;;;;;;;;5011965;28;20457;-78
2022/09/15 02:49:26;;;;;;;2.50;1.80;;;;;;;;;;5011692;28;20505;-76
2022/09/15 02:51:53;;;;;;;2.00;1.83;;;;;;;;;;5014891;28;20516;-76
2022/09/15 02:54:21;;;;;;;2.10;1.90;;;;;;;;;;5015361;28;20860;-76
2022/09/15 02:56:49;;;;;;;2.20;2.00;;;;;;;;;;5015659;28;20943;-76
2022/09/15 02:59:16;;;;;;;1.90;1.80;;;;;;;;;;5015275;28;20506;-76
2022/09/15 03:01:43;;;;;;;1.90;1.80;;;;;;;;;;5015381;28;20509;-77
2022/09/15 03:04:10;;;;;;;2.73;2.10;;;;;;;;;;5015322;28;20471;-77
2022/09/15 03:06:37;;;;;;;3.63;2.10;;;;;;;;;;5015139;28;20451;-77
2022/09/15 03:09:05;;;;;;;1.93;1.83;;;;;;;;;;5015122;28;20467;-77
2022/09/15 03:11:34;;;;;;;3.77;2.10;;;;;;;;;;5015579;28;20444;-76
2022/09/15 03:14:03;;;;;;;2.23;2.03;;;;;;;;;;5015063;28;20439;-76
2022/09/15 03:16:31;;;;;;;2.10;1.90;;;;;;;;;;5014862;28;21180;-76
2022/09/15 03:18:58;;;;;;;3.13;2.17;;;;;;;;;;5014333;28;20483;-76
2022/09/15 03:21:26;;;;;;;2.13;1.93;;;;;;;;;;5014331;28;20947;-77
2022/09/15 03:23:53;;;;;;;2.77;1.67;;;;;;;;;;5014292;28;20443;-77
2022/09/15 03:26:20;;;;;;;2.43;1.90;;;;;;;;;;5014620;28;20443;-76
2022/09/15 03:28:48;;;;;;;3.07;1.67;;;;;;;;;;5014575;28;21037;-76
2022/09/15 03:31:15;;;;;;;1.73;1.70;;;;;;;;;;5016033;28;20451;-77
2022/09/15 03:33:42;;;;;;;1.90;1.80;;;;;;;;;;5014659;28;20454;-76
2022/09/15 03:36:10;;;;;;;2.00;1.87;;;;;;;;;;5015024;28;20537;-76
2022/09/15 03:38:37;;;;;;;2.40;2.20;;;;;;;;;;5015617;28;20475;-77
2022/09/15 03:41:06;;;;;;;2.83;1.60;;;;;;;;;;5015066;28;20440;-77
2022/09/15 03:43:34;;;;;;;3.10;2.00;;;;;;;;;;5015808;28;20509;-78
2022/09/15 03:46:02;;;;;;;2.10;1.67;;;;;;;;;;5014699;28;20443;-77
2022/09/15 03:48:30;;;;;;;2.57;1.57;;;;;;;;;;5015057;28;21014;-76
2022/09/15 03:50:57;;;;;;;1.80;1.70;;;;;;;;;;5014621;28;20459;-75
2022/09/15 03:53:24;;;;;;;1.93;1.57;;;;;;;;;;5014978;28;20447;-76
2022/09/15 03:55:52;;;;;;;2.60;2.27;;;;;;;;;;5014667;28;20499;-77
2022/09/15 03:58:19;;;;;;;1.93;1.80;;;;;;;;;;5014368;28;20475;-77
2022/09/15 04:00:47;;;;;;;1.97;1.87;;;;;;;;;;5014620;28;20973;-75
2022/09/15 04:03:15;;;;;;;2.20;1.20;;;;;;;;;;5014275;28;20439;-76
2022/09/15 04:05:42;;;;;;;2.73;1.60;;;;;;;;;;5015148;28;20454;-75
2022/09/15 04:08:12;;;;;;;5.60;1.87;;;;;;;;;;5014425;28;20475;-76
2022/09/15 04:10:39;;;;;;;1.70;1.20;;;;;;;;;;5020892;28;20450;-76
2022/09/15 04:13:07;;;;;;;3.50;1.80;;;;;;;;;;5016622;28;20481;-77
2022/09/15 04:15:34;;;;;;;2.90;1.60;;;;;;;;;;5015030;28;20888;-77
2022/09/15 04:18:02;;;;;;;1.80;1.70;;;;;;;;;;5015709;28;20789;-76
2022/09/15 04:20:31;;;;;;;1.83;1.70;;;;;;;;;;5016233;28;20463;-76
2022/09/15 04:22:58;;;;;;;2.63;1.60;;;;;;;;;;5013544;28;20870;-76
2022/09/15 04:25:26;;;;;;;2.20;1.60;;;;;;;;;;5014236;28;20444;-76
2022/09/15 04:27:53;;;;;;;2.17;1.97;;;;;;;;;;5013270;28;20553;-76
2022/09/15 04:30:20;;;;;;;2.93;1.93;;;;;;;;;;5021941;28;20459;-77
2022/09/15 04:32:48;;;;;;;1.60;1.50;;;;;;;;;;4993542;28;20476;-75
2022/09/15 04:35:16;;;;;;;1.80;1.70;;;;;;;;;;4994025;28;20522;-77
2022/09/15 04:37:44;;;;;;;2.60;2.13;;;;;;;;;;4994060;28;20528;-77
2022/09/15 04:40:11;;;;;;;1.70;1.60;;;;;;;;;;4994136;28;20444;-77
2022/09/15 04:42:38;;;;;;;2.93;2.07;;;;;;;;;;4993787;28;20452;-77
2022/09/15 04:45:06;;;;;;;2.03;1.73;;;;;;;;;;4993742;28;20444;-79
2022/09/15 04:47:34;;;;;;;2.10;1.70;;;;;;;;;;4994654;28;20518;-76
2022/09/15 04:50:01;;;;;;;1.93;1.80;;;;;;;;;;4994956;28;20880;-76
2022/09/15 04:52:28;;;;;;;3.20;2.00;;;;;;;;;;4994082;28;20452;-76
2022/09/15 04:54:56;;;;;;;1.60;1.50;;;;;;;;;;4993360;28;20456;-77
2022/09/15 04:57:23;;;;;;;1.60;1.50;;;;;;;;;;4994483;28;21025;-78
2022/09/15 04:59:50;;;;;;;1.90;1.80;;;;;;;;;;4995318;28;20478;-76
2022/09/15 05:02:17;;;;;;;1.83;1.60;;;;;;;;;;5004842;28;20821;-77
2022/09/15 05:04:44;;;;;;;2.17;1.80;;;;;;;;;;5034025;28;20432;-75
2022/09/15 05:07:11;;;;;;;3.57;2.50;;;;;;;;;;5028313;28;20443;-76
2022/09/15 05:09:38;;;;;;;1.47;1.40;;;;;;;;;;5024873;28;20442;-77
2022/09/15 05:12:07;;;;;;;2.67;1.40;;;;;;;;;;5014324;28;20506;-77
2022/09/15 05:14:34;;;;;;;1.67;1.57;;;;;;;;;;5012948;28;20543;-77
2022/09/15 05:17:01;;;;;;;2.00;1.67;;;;;;;;;;5013610;28;20483;-76
2022/09/15 05:19:28;;;;;;;1.80;1.70;;;;;;;;;;5013471;28;20482;-77
2022/09/15 05:21:55;;;;;;;4.70;2.07;;;;;;;;;;5013700;28;20443;-77
2022/09/15 05:24:22;;;;;;;1.80;1.70;;;;;;;;;;5013244;28;20442;-77
2022/09/15 05:26:49;;;;;;;2.50;1.80;;;;;;;;;;5013537;28;20478;-76
2022/09/15 05:29:18;;;;;;;1.77;1.67;;;;;;;;;;5014363;28;20874;-77
2022/09/15 05:31:45;;;;;;;1.43;1.33;;;;;;;;;;5018248;28;20549;-79
2022/09/15 05:34:12;;;;;;;2.60;1.50;;;;;;;;;;5013913;28;20542;-77
2022/09/15 05:36:39;;;;;;;1.73;1.63;;;;;;;;;;5014667;28;20479;-76
2022/09/15 05:39:06;;;;;;;2.57;1.83;;;;;;;;;;5014423;28;20517;-77
2022/09/15 05:41:33;;;;;;;1.97;1.87;;;;;;;;;;5013467;28;20455;-77
2022/09/15 05:44:00;;;;;;;2.27;2.10;;;;;;;;;;5014327;28;20458;-77
2022/09/15 05:46:29;;;;;;;2.40;1.77;;;;;;;;;;5014027;28;20435;-77
2022/09/15 05:48:57;;;;;;;2.13;1.90;;;;;;;;;;5014215;28;20483;-78
2022/09/15 05:51:24;;;;;;;1.90;1.73;;;;;;;;;;5013375;28;21266;-77
2022/09/15 05:53:51;;;;;;;1.87;1.60;;;;;;;;;;5012977;28;20757;-76
2022/09/15 05:56:19;;;;;;;1.90;1.80;;;;;;;;;;5013280;28;20479;-76
2022/09/15 05:58:47;;;;;;;2.10;2.00;;;;;;;;;;5013455;28;20463;-77
2022/09/15 06:01:15;;;;;;;2.20;1.97;;;;;;;;;;5014870;28;20538;-76
2022/09/15 06:03:43;;;;;;;4.20;1.83;;;;;;;;;;5017088;28;20447;-76
2022/09/15 06:06:11;;;;;;;2.00;1.40;;;;;;;;;;5015530;28;20443;-77
2022/09/15 06:08:39;;;;;;;1.60;1.50;;;;;;;;;;5012620;28;20558;-77
2022/09/15 06:11:07;;;;;;;1.67;1.43;;;;;;;;;;5014048;28;20440;-77
2022/09/15 06:13:35;;;;;;;1.70;1.40;;;;;;;;;;5011785;28;20455;-77
2022/09/15 06:16:02;;;;;;;1.53;1.43;;;;;;;;;;5006422;28;20486;-76
2022/09/15 06:18:29;;;;;;;1.70;1.60;;;;;;;;;;5018283;28;20485;-75
2022/09/15 06:20:58;;;;;;;1.43;1.33;;;;;;;;;;5017657;28;20457;-76
2022/09/15 06:23:25;;;;;;;2.37;1.40;;;;;;;;;;5027881;28;21209;-76
2022/09/15 06:25:52;;;;;;;1.93;1.40;;;;;;;;;;5022333;28;20487;-75
2022/09/15 06:28:19;;;;;;;2.07;1.33;;;;;;;;;;5020659;28;20502;-76
2022/09/15 06:30:48;;;;;;;3.23;1.70;;;;;;;;;;5023478;28;20954;-75
2022/09/15 06:33:15;;;;;;;1.40;1.30;;;;;;;;;;5018258;28;20459;-75
2022/09/15 06:35:42;;;;;;;1.70;1.17;;;;;;;;;;5018275;28;20446;-75
2022/09/15 06:38:11;;;;;;;1.53;1.43;;;;;;;;;;5002694;28;20529;-76
2022/09/15 06:40:38;;;;;;;1.50;1.40;;;;;;;;;;5006576;28;20448;-78
2022/09/15 06:43:05;;;;;;;1.90;1.50;;;;;;;;;;4991508;28;20472;-76
2022/09/15 06:45:32;;;;;;;1.77;1.40;;;;;;;;;;4998927;28;20451;-77
2022/09/15 06:47:59;;;;;;;5.50;2.00;;;;;;;;;;5015813;28;20815;-77
2022/09/15 06:50:26;;;;;;;3.70;1.57;;;;;;;;;;5031337;28;20460;-76
2022/09/15 06:52:53;;;;;;;5.60;2.20;;;;;;;;;;5030810;28;20486;-76
2022/09/15 06:55:21;;;;;;;3.03;2.20;;;;;;;;;;5030561;28;20797;-77
2022/09/15 06:57:50;;;;;;;1.67;1.57;;;;;;;;;;4991020;28;20843;-76
2022/09/15 07:00:19;;;;;;;1.80;1.70;;;;;;;;;;4992629;28;20581;-77
2022/09/15 07:02:48;;;;;;;1.20;1.20;;;;;;;;;;4996142;28;20456;-78
2022/09/15 07:05:15;;;;;;;1.43;1.30;;;;;;;;;;4994396;28;20499;-75
2022/09/15 07:07:45;;;;;;;2.10;1.90;;;;;;;;;;4992115;28;21263;-78
2022/09/15 07:10:12;;;;;;;2.63;2.00;;;;;;;;;;4992659;28;20444;-78
2022/09/15 07:12:40;;;;;;;1.80;1.70;;;;;;;;;;4992181;28;20444;-78
2022/09/15 07:15:08;;;;;;;2.77;1.83;;;;;;;;;;4991527;28;20455;-78
2022/09/15 07:17:36;;;;;;;1.73;1.63;;;;;;;;;;4990493;28;20491;-76
2022/09/15 07:20:03;;;;;;;2.27;2.07;;;;;;;;;;4990668;28;20444;-75
2022/09/15 07:22:30;;;;;;;3.43;2.17;;;;;;;;;;4990642;28;20446;-77
2022/09/15 07:24:57;;;;;;;2.17;1.70;;;;;;;;;;4990718;28;20444;-77
2022/09/15 07:27:30;;;;;;;1.40;1.30;;;;;;;;;;4990747;28;20530;-75
2022/09/15 07:29:58;;;;;;;2.00;1.60;;;;;;;;;;4990962;28;20503;-76
2022/09/15 07:32:25;;;;;;;1.90;1.80;;;;;;;;;;4990840;28;20806;-76
2022/09/15 07:34:52;;;;;;;1.73;1.63;;;;;;;;;;4990529;28;20452;-75
2022/09/15 07:37:20;;;;;;;5.20;1.70;;;;;;;;;;4992749;28;20487;-76
2022/09/15 07:39:48;;;;;;;3.17;2.10;;;;;;;;;;5000211;28;20460;-76
2022/09/15 07:42:15;;;;;;;2.03;1.50;;;;;;;;;;5028756;28;21046;-76
2022/09/15 07:44:42;;;;;;;4.63;2.20;;;;;;;;;;5033313;28;20542;-75
2022/09/15 07:47:25;;;;;;;2.40;2.10;;;;;;;;;;5033514;28;20946;-76
2022/09/15 07:49:55;;;;;;;3.00;1.70;;;;;;;;;;5037230;28;20492;-77
2022/09/15 07:52:26;;;;;;;1.70;1.60;;;;;;;;;;5037153;28;20450;-76
2022/09/15 07:54:53;;;;;;;5.10;2.70;;;;;;;;;;5033869;28;20447;-76
2022/09/15 07:57:20;;;;;;;3.93;3.50;;;;;;;;;;5033010;28;20478;-76
2022/09/15 07:59:47;;;;;;;4.67;2.47;;;;;;;;;;5032962;28;20450;-77
2022/09/15 08:02:17;;;;;;;3.13;2.20;;;;;;;;;;5033186;28;20450;-77
2022/09/15 08:04:44;;;;;;;2.33;2.07;;;;;;;;;;5032939;28;20488;-77
2022/09/15 08:07:12;;;;;;;2.60;2.17;;;;;;;;;;5032712;28;20504;-77
2022/09/15 08:09:39;;;;;;;2.10;2.00;;;;;;;;;;5032653;28;20461;-77
2022/09/15 08:12:07;;;;;;;2.50;2.13;;;;;;;;;;5019923;28;20470;-75
2022/09/15 08:14:34;;;;;;;1.97;1.87;;;;;;;;;;5013335;28;20431;-76
2022/09/15 08:17:03;;;;;;;3.00;1.77;;;;;;;;;;5013328;28;21053;-76
2022/09/15 08:19:32;;;;;;;2.33;1.60;;;;;;;;;;5013508;28;20506;-77
2022/09/15 08:21:59;;;;;;;3.67;1.93;;;;;;;;;;5013513;28;20454;-76
2022/09/15 08:24:26;;;;;;;2.37;1.70;;;;;;;;;;5013486;28;20447;-77
2022/09/15 08:26:53;;;;;;;5.70;4.23;;;;;;;;;;5013526;28;20443;-76
2022/09/15 08:29:20;;;;;;;2.20;2.10;;;;;;;;;;5013181;28;20463;-77
2022/09/15 08:31:48;;;;;;;1.70;1.60;;;;;;;;;;5013328;28;20712;-76
2022/09/15 08:34:16;;;;;;;7.53;2.00;;;;;;;;;;5013031;28;20494;-76
2022/09/15 08:36:44;;;;;;;2.07;1.70;;;;;;;;;;5013110;28;20483;-75
2022/09/15 08:39:11;;;;;;;1.70;1.60;;;;;;;;;;5012925;28;20459;-76
2022/09/15 08:41:40;;;;;;;3.33;1.97;;;;;;;;;;5012994;28;20959;-76
2022/09/15 08:44:11;;;;;;;1.80;1.70;;;;;;;;;;5012920;28;20446;-77
2022/09/15 08:46:41;;;;;;;3.53;2.20;;;;;;;;;;5012999;28;20467;-76
2022/09/15 08:49:11;;;;;;;2.10;1.80;;;;;;;;;;5011416;28;21020;-77
2022/09/15 08:51:42;;;;;;;1.60;1.50;;;;;;;;;;5012623;28;20472;-76
2022/09/15 08:54:15;;;;;;;3.47;1.70;;;;;;;;;;5012381;28;20459;-75
2022/09/15 08:56:43;;;;;;;1.40;1.30;;;;;;;;;;5012723;28;20481;-76
2022/09/15 08:59:14;;;;;;;2.10;1.67;;;;;;;;;;5012611;28;20589;-76
2022/09/15 09:01:43;;;;;;;1.53;1.43;;;;;;;;;;5012817;28;20439;-76
2022/09/15 09:04:18;;;;;;;1.60;1.50;;;;;;;;;;5012969;28;20455;-76
2022/09/15 09:06:50;;;;;;;4.40;1.37;;;;;;;;;;5013037;28;20431;-77
2022/09/15 09:09:25;;;;;;;1.63;1.47;;;;;;;;;;5012598;28;20579;-77
2022/09/15 09:12:02;;;;;;;2.00;1.27;;;;;;;;;;5013007;28;20428;-76
2022/09/15 09:14:33;;;;;;;1.53;1.43;;;;;;;;;;5012380;28;20469;-77
2022/09/15 09:17:08;;;;;;;1.43;1.23;;;;;;;;;;5012315;28;20479;-76
2022/09/15 09:19:42;;;;;;;1.47;1.40;;;;;;;;;;5012462;28;20439;-77
2022/09/15 09:22:10;;;;;;;13.07;11.87;;;;;;;;;;5012513;28;20489;-76
2022/09/15 09:24:43;;;;;;;2.50;1.90;;;;;;;;;;5012772;28;20454;-76
2022/09/15 09:27:12;;;;;;;2.60;1.50;;;;;;;;;;5012435;28;20428;-77
2022/09/15 09:29:40;;;;;;;2.20;1.40;;;;;;;;;;5012145;28;20447;-76
2022/09/15 09:32:14;;;;;;;0.70;0.70;;;;;;;;;;5012139;28;20470;-77
2022/09/15 09:34:44;;;;;;;3.83;0.83;;;;;;;;;;5011577;28;20501;-76
2022/09/15 09:37:12;;;;;;;2.77;1.20;;;;;;;;;;5011613;28;20482;-75
2022/09/15 09:39:41;;;;;;;0.53;0.50;;;;;;;;;;5011501;28;20439;-75
2022/09/15 09:42:13;;;;;;;1.03;0.57;;;;;;;;;;5004660;28;20465;-76
2022/09/15 09:44:40;;;;;;;1.13;0.60;;;;;;;;;;5006996;28;20486;-75
2022/09/15 09:47:07;;;;;;;1.30;0.63;;;;;;;;;;4991678;28;20467;-76
2022/09/15 09:49:35;;;;;;;1.03;0.60;;;;;;;;;;4991809;28;20448;-76
2022/09/15 09:52:03;;;;;;;0.67;0.67;;;;;;;;;;4992329;28;20507;-76
2022/09/15 09:54:31;;;;;;;1.80;0.90;;;;;;;;;;4992179;28;20813;-76
2022/09/15 09:57:18;;;;;;;1.37;0.90;;;;;;;;;;4992502;28;20498;-76
2022/09/15 09:59:46;;;;;;;0.70;0.70;;;;;;;;;;5022273;28;20776;-78
2022/09/15 10:02:14;;;;;;;0.60;0.60;;;;;;;;;;5031795;28;20458;-77
2022/09/15 10:04:42;;;;;;;1.03;0.70;;;;;;;;;;5031573;28;20942;-78
2022/09/15 10:07:10;;;;;;;1.40;1.30;;;;;;;;;;5033352;28;20537;-76
2022/09/15 10:09:37;;;;;;;0.97;0.83;;;;;;;;;;5032245;28;20450;-77
2022/09/15 10:12:07;;;;;;;1.13;0.50;;;;;;;;;;5033151;28;20458;-76
2022/09/15 10:14:36;;;;;;;1.17;0.67;;;;;;;;;;5032757;28;20446;-76
2022/09/15 10:17:06;;;;;;;1.27;0.60;;;;;;;;;;5033379;28;20516;-77
2022/09/15 10:19:35;;;;;;;0.70;0.70;;;;;;;;;;5032477;28;20902;-78
2022/09/15 10:22:03;;;;;;;0.77;0.77;;;;;;;;;;5032230;28;20523;-77
2022/09/15 10:24:33;;;;;;;0.93;0.77;;;;;;;;;;5031765;28;20455;-77
2022/09/15 10:27:23;;;;;;;0.63;0.63;;;;;;;;;;5031594;28;21325;-77
2022/09/15 10:29:52;;;;;;;1.40;1.37;;;;;;;;;;5020951;28;20454;-78
2022/09/15 10:32:24;;;;;;;1.80;1.70;;;;;;;;;;5033731;28;20458;-78
2022/09/15 10:34:58;;;;;;;2.53;2.43;;;;;;;;;;5032410;28;20453;-78
2022/09/15 10:37:27;;;;;;;1.80;1.70;;;;;;;;;;5031916;28;21067;-78
2022/09/15 10:39:55;;;;;;;2.10;2.00;;;;;;;;;;5032009;28;20471;-78
2022/09/15 10:42:26;;;;;;;2.60;2.40;;;;;;;;;;5032101;28;20446;-76
2022/09/15 10:44:59;;;;;;;2.17;2.07;;;;;;;;;;5032171;28;20466;-76
2022/09/15 10:47:31;;;;;;;3.40;3.13;;;;;;;;;;5031656;28;20494;-78
2022/09/15 10:50:05;;;;;;;3.50;3.20;;;;;;;;;;5031417;28;20453;-77
2022/09/15 10:52:36;;;;;;;3.60;3.30;;;;;;;;;;5031508;28;20724;-77
2022/09/15 10:55:08;;;;;;;3.93;3.63;;;;;;;;;;5031855;28;20431;-77
2022/09/15 10:57:44;;;;;;;4.20;3.90;;;;;;;;;;5032065;28;20482;-77
2022/09/15 11:00:15;;;;;;;3.97;3.73;;;;;;;;;;5031855;28;20446;-77
2022/09/15 11:02:50;;;;;;;4.73;4.33;;;;;;;;;;5030907;28;20485;-77
2022/09/15 11:05:21;;;;;;;3.80;3.60;;;;;;;;;;5032454;28;20781;-77
2022/09/15 11:07:54;;;;;;;4.20;3.60;;;;;;;;;;5032287;28;20495;-76
2022/09/15 11:10:25;;;;;;;3.83;3.60;;;;;;;;;;5016838;28;20451;-76
2022/09/15 11:12:56;;;;;;;4.17;3.87;;;;;;;;;;5021752;28;20712;-78
2022/09/15 11:15:48;;;;;;;4.37;3.97;;;;;;;;;;5037342;28;20438;-79
2022/09/15 11:18:22;;;;;;;4.97;4.57;;;;;;;;;;5036291;28;20508;-78
2022/09/15 11:20:58;;;;;;;4.33;3.90;;;;;;;;;;5035673;28;20430;-77
2022/09/15 11:23:29;;;;;;;5.20;4.80;;;;;;;;;;5036145;28;20442;-78
2022/09/15 11:26:00;;;;;;;5.67;5.27;;;;;;;;;;5036513;28;20434;-77
2022/09/15 11:28:31;;;;;;;4.90;4.50;;;;;;;;;;5036920;28;20549;-77
2022/09/15 11:31:02;;;;;;;5.07;4.77;;;;;;;;;;5036492;28;20948;-76
2022/09/15 11:33:37;;;;;;;4.70;4.20;;;;;;;;;;5036513;28;20813;-77
2022/09/15 11:36:07;;;;;;;4.90;4.50;;;;;;;;;;5036034;28;20937;-76
2022/09/15 11:38:37;;;;;;;5.63;4.97;;;;;;;;;;5036051;28;21202;-76
2022/09/15 11:41:11;;;;;;;5.60;4.27;;;;;;;;;;5036454;28;20469;-76
2022/09/15 11:43:44;;;;;;;5.47;5.07;;;;;;;;;;5037232;28;20473;-77
2022/09/15 11:46:16;;;;;;;6.50;5.90;;;;;;;;;;5038137;28;20438;-77
2022/09/15 11:48:44;;;;;;;6.50;5.53;;;;;;;;;;5037387;28;20458;-76
2022/09/15 11:51:13;;;;;;;5.87;5.40;;;;;;;;;;5038093;28;20461;-77
2022/09/15 11:53:44;;;;;;;5.00;4.50;;;;;;;;;;5037607;28;20472;-77
2022/09/15 11:56:16;;;;;;;7.63;4.70;;;;;;;;;;5038860;28;20457;-78
2022/09/15 11:58:49;;;;;;;5.20;4.70;;;;;;;;;;5044404;28;20544;-81
2022/09/15 12:01:20;;;;;;;5.33;4.83;;;;;;;;;;5056065;28;20450;-77
2022/09/15 12:03:51;;;;;;;5.40;4.90;;;;;;;;;;5046238;28;20516;-75
2022/09/15 12:06:21;;;;;;;5.93;4.87;;;;;;;;;;5040060;28;20462;-76
2022/09/15 12:08:51;;;;;;;5.33;4.80;;;;;;;;;;5039897;28;20450;-77
2022/09/15 12:11:21;;;;;;;5.57;4.80;;;;;;;;;;5032904;28;20822;-77
2022/09/15 12:13:48;;;;;;;5.37;4.10;;;;;;;;;;5024196;28;20490;-77
2022/09/15 12:16:16;;;;;;;5.73;4.67;;;;;;;;;;5020684;28;20466;-76
2022/09/15 12:18:46;;;;;;;4.97;4.50;;;;;;;;;;5018176;28;20951;-76
2022/09/15 12:21:17;;;;;;;5.07;4.50;;;;;;;;;;5016286;28;20502;-77
2022/09/15 12:23:47;;;;;;;8.17;5.50;;;;;;;;;;5015466;28;20896;-76
2022/09/15 12:26:16;;;;;;;6.63;5.07;;;;;;;;;;5016833;28;20443;-77
2022/09/15 12:28:53;;;;;;;5.83;4.57;;;;;;;;;;5021848;28;21014;-76
2022/09/15 12:31:33;;;;;;;4.50;4.10;;;;;;;;;;5018227;28;20450;-75
2022/09/15 12:34:03;;;;;;;4.33;3.90;;;;;;;;;;5016672;28;20443;-77
2022/09/15 12:36:31;;;;;;;4.87;4.10;;;;;;;;;;5018020;28;20478;-76
2022/09/15 12:38:59;;;;;;;3.97;3.67;;;;;;;;;;5016218;28;20490;-77
2022/09/15 12:41:26;;;;;;;7.20;4.13;;;;;;;;;;5017459;28;20444;-77
2022/09/15 12:43:54;;;;;;;5.10;3.93;;;;;;;;;;5020623;28;20451;-75
2022/09/15 12:46:21;;;;;;;5.67;5.00;;;;;;;;;;5016473;28;20447;-77
2022/09/15 12:48:49;;;;;;;6.33;4.47;;;;;;;;;;5017290;28;20466;-76
2022/09/15 12:51:24;;;;;;;8.60;4.43;;;;;;;;;;5016008;28;20463;-76
2022/09/15 12:53:52;;;;;;;4.97;4.53;;;;;;;;;;5017954;28;20436;-78
2022/09/15 12:56:24;;;;;;;5.13;4.63;;;;;;;;;;5018858;28;20451;-77
2022/09/15 12:58:51;;;;;;;4.60;4.23;;;;;;;;;;5016142;28;20499;-78
2022/09/15 13:01:33;;;;;;;5.23;4.80;;;;;;;;;;5016999;28;20487;-76
2022/09/15 13:04:20;;;;;;;5.27;4.77;;;;;;;;;;5031461;28;20459;-76
2022/09/15 13:07:12;;;;;;;6.90;4.90;;;;;;;;;;5034090;28;20435;-76
2022/09/15 13:09:44;;;;;;;5.30;4.80;;;;;;;;;;5031338;28;20439;-77
2022/09/15 13:12:12;;;;;;;5.40;4.90;;;;;;;;;;5022432;28;20436;-77
2022/09/15 13:14:43;;;;;;;5.33;4.83;;;;;;;;;;5012684;28;20508;-76
2022/09/15 13:17:15;;;;;;;4.90;4.47;;;;;;;;;;5013600;28;20451;-76
2022/09/15 13:19:45;;;;;;;5.43;5.00;;;;;;;;;;5014384;28;20574;-76
2022/09/15 13:22:22;;;;;;;4.80;4.37;;;;;;;;;;5014208;28;20451;-75
2022/09/15 13:24:53;;;;;;;8.70;4.30;;;;;;;;;;5013170;28;20510;-75
2022/09/15 13:27:22;;;;;;;5.60;4.43;;;;;;;;;;5013130;28;20447;-77
2022/09/15 13:29:50;;;;;;;5.03;4.63;;;;;;;;;;5012753;28;20471;-76
2022/09/15 13:32:23;;;;;;;4.93;4.47;;;;;;;;;;5013196;28;20628;-76
2022/09/15 13:35:08;;;;;;;4.30;4.10;;;;;;;;;;5012781;28;20454;-76
2022/09/15 13:37:49;;;;;;;4.10;3.70;;;;;;;;;;5013852;28;20477;-76
2022/09/15 13:40:28;;;;;;;6.80;4.37;;;;;;;;;;5011922;28;20837;-76
2022/09/15 13:43:04;;;;;;;6.00;4.40;;;;;;;;;;5012089;28;20454;-75
2022/09/15 13:45:44;;;;;;;9.47;4.37;;;;;;;;;;5012209;28;20538;-77
2022/09/15 13:48:19;;;;;;;5.30;4.03;;;;;;;;;;5012110;28;20509;-76
2022/09/15 13:50:54;;;;;;;4.80;3.80;;;;;;;;;;5011611;28;20451;-76
2022/09/15 13:53:31;;;;;;;3.70;3.40;;;;;;;;;;5012695;28;20442;-77
2022/09/15 13:56:01;;;;;;;2.90;2.80;;;;;;;;;;5012161;28;20463;-75
2022/09/15 13:58:28;;;;;;;10.30;4.10;;;;;;;;;;5012660;28;20491;-75
2022/09/15 14:00:58;;;;;;;4.20;3.80;;;;;;;;;;5012017;28;20514;-77
2022/09/15 14:03:26;;;;;;;4.20;3.33;;;;;;;;;;5011677;28;20452;-76
2022/09/15 14:05:54;;;;;;;3.87;3.50;;;;;;;;;;5012057;28;20455;-75
2022/09/15 14:08:22;;;;;;;3.90;3.60;;;;;;;;;;5011810;28;20554;-75
2022/09/15 14:10:53;;;;;;;6.20;3.60;;;;;;;;;;5011787;28;20451;-76
2022/09/15 14:13:21;;;;;;;3.23;2.93;;;;;;;;;;5011518;28;20447;-75
2022/09/15 14:15:57;;;;;;;4.30;3.90;;;;;;;;;;5011506;28;20448;-76
2022/09/15 14:18:24;;;;;;;3.83;3.30;;;;;;;;;;5012041;28;20486;-77
2022/09/15 14:20:58;;;;;;;3.70;3.47;;;;;;;;;;5012039;28;20440;-76
2022/09/15 14:23:25;;;;;;;4.50;4.10;;;;;;;;;;5012495;28;20451;-77
2022/09/15 14:25:54;;;;;;;4.90;4.50;;;;;;;;;;5012271;28;20427;-76
2022/09/15 14:28:24;;;;;;;4.20;3.90;;;;;;;;;;5012113;28;20519;-76
2022/09/15 14:30:51;;;;;;;4.90;3.53;;;;;;;;;;5009931;28;20462;-76
2022/09/15 14:33:18;;;;;;;8.77;4.03;;;;;;;;;;5019736;28;20455;-75
2022/09/15 14:35:45;;;;;;;4.83;4.00;;;;;;;;;;5026855;28;20443;-76
2022/09/15 14:38:21;;;;;;;4.10;3.80;;;;;;;;;;5031036;28;20466;-75
2022/09/15 14:40:51;;;;;;;4.37;3.70;;;;;;;;;;5031003;28;20453;-76
2022/09/15 14:43:27;;;;;;;3.97;3.57;;;;;;;;;;5030689;28;20534;-77
2022/09/15 14:45:54;;;;;;;4.50;4.17;;;;;;;;;;5022361;28;20435;-76
2022/09/15 14:48:26;;;;;;;4.20;3.80;;;;;;;;;;5013395;28;20463;-77
2022/09/15 14:50:58;;;;;;;3.63;3.40;;;;;;;;;;5011364;28;20455;-77
2022/09/15 14:53:25;;;;;;;3.70;3.40;;;;;;;;;;5010623;28;20435;-76
2022/09/15 14:55:55;;;;;;;5.47;3.93;;;;;;;;;;5010858;28;20443;-75
2022/09/15 14:58:24;;;;;;;4.00;3.80;;;;;;;;;;5010026;28;20844;-76
2022/09/15 15:00:54;;;;;;;4.23;3.93;;;;;;;;;;5009124;28;20744;-76